sensor_id;sensor_type;location;lat;lon;timestamp;P1;durP1;ratioP1;P2;durP2;ratioP2
22656;SDS011;11495;55.610;12.100;2022-09-09T00:03:57;2.95;;;2.08;;
22656;SDS011;11495;55.610;12.100;2022-09-09T00:09:49;2.60;;;2.40;;
22656;SDS011;11495;55.610;12.100;2022-09-09T00:12:27;4.15;;;1.85;;
22656;SDS011;11495;55.610;12.100;2022-09-09T00:14:58;4.30;;;2.08;;
22656;SDS011;11495;55.610;12.100;2022-09-09T00:19:58;4.00;;;2.33;;
22656;SDS011;11495;55.610;12.100;2022-09-09T00:22:34;10.93;;;2.62;;
22656;SDS011;11495;55.610;12.100;2022-09-09T00:25:09;5.07;;;2.17;;
22656;SDS011;11495;55.610;12.100;2022-09-09T00:27:46;5.25;;;2.28;;
22656;SDS011;11495;55.610;12.100;2022-09-09T00:30:23;4.10;;;1.55;;
22656;SDS011;11495;55.610;12.100;2022-09-09T00:32:54;3.03;;;2.25;;
22656;SDS011;11495;55.610;12.100;2022-09-09T00:35:25;6.78;;;2.20;;
22656;SDS011;11495;55.610;12.100;2022-09-09T00:37:55;3.08;;;2.20;;
22656;SDS011;11495;55.610;12.100;2022-09-09T00:40:30;7.43;;;2.33;;
22656;SDS011;11495;55.610;12.100;2022-09-09T00:43:32;4.47;;;2.37;;
22656;SDS011;11495;55.610;12.100;2022-09-09T00:46:05;2.50;;;1.90;;
22656;SDS011;11495;55.610;12.100;2022-09-09T00:48:52;2.97;;;2.10;;
22656;SDS011;11495;55.610;12.100;2022-09-09T00:54:28;4.62;;;2.20;;
22656;SDS011;11495;55.610;12.100;2022-09-09T00:57:10;2.83;;;2.12;;
22656;SDS011;11495;55.610;12.100;2022-09-09T00:59:52;1.85;;;1.40;;
22656;SDS011;11495;55.610;12.100;2022-09-09T01:02:28;3.53;;;2.00;;
22656;SDS011;11495;55.610;12.100;2022-09-09T01:05:47;2.78;;;1.70;;
22656;SDS011;11495;55.610;12.100;2022-09-09T01:07:57;6.97;;;2.70;;
22656;SDS011;11495;55.610;12.100;2022-09-09T01:10:39;3.05;;;2.10;;
22656;SDS011;11495;55.610;12.100;2022-09-09T01:13:22;7.85;;;2.42;;
22656;SDS011;11495;55.610;12.100;2022-09-09T01:15:55;5.85;;;2.25;;
22656;SDS011;11495;55.610;12.100;2022-09-09T01:18:26;4.40;;;2.17;;
22656;SDS011;11495;55.610;12.100;2022-09-09T01:24:05;2.40;;;1.73;;
22656;SDS011;11495;55.610;12.100;2022-09-09T01:26:52;5.37;;;2.50;;
22656;SDS011;11495;55.610;12.100;2022-09-09T01:29:22;2.45;;;1.87;;
22656;SDS011;11495;55.610;12.100;2022-09-09T01:31:55;3.85;;;2.40;;
22656;SDS011;11495;55.610;12.100;2022-09-09T01:34:24;3.03;;;2.40;;
22656;SDS011;11495;55.610;12.100;2022-09-09T01:39:34;2.53;;;2.08;;
22656;SDS011;11495;55.610;12.100;2022-09-09T01:42:02;4.25;;;1.40;;
22656;SDS011;11495;55.610;12.100;2022-09-09T01:44:31;2.75;;;1.58;;
22656;SDS011;11495;55.610;12.100;2022-09-09T01:46:57;3.72;;;1.67;;
22656;SDS011;11495;55.610;12.100;2022-09-09T01:49:22;2.72;;;1.90;;
22656;SDS011;11495;55.610;12.100;2022-09-09T01:51:52;1.67;;;1.48;;
22656;SDS011;11495;55.610;12.100;2022-09-09T01:54:23;2.28;;;1.80;;
22656;SDS011;11495;55.610;12.100;2022-09-09T01:59:40;3.47;;;2.17;;
22656;SDS011;11495;55.610;12.100;2022-09-09T02:02:26;4.93;;;2.12;;
22656;SDS011;11495;55.610;12.100;2022-09-09T02:07:39;4.05;;;2.40;;
22656;SDS011;11495;55.610;12.100;2022-09-09T02:10:12;2.10;;;1.80;;
22656;SDS011;11495;55.610;12.100;2022-09-09T02:13:18;4.70;;;1.48;;
22656;SDS011;11495;55.610;12.100;2022-09-09T02:18:15;2.70;;;1.85;;
22656;SDS011;11495;55.610;12.100;2022-09-09T02:23:16;2.25;;;1.70;;
22656;SDS011;11495;55.610;12.100;2022-09-09T02:28:12;2.35;;;1.48;;
22656;SDS011;11495;55.610;12.100;2022-09-09T02:30:40;3.17;;;1.75;;
22656;SDS011;11495;55.610;12.100;2022-09-09T02:33:07;3.05;;;1.70;;
22656;SDS011;11495;55.610;12.100;2022-09-09T02:35:37;1.45;;;1.35;;
22656;SDS011;11495;55.610;12.100;2022-09-09T02:38:04;3.08;;;1.83;;
22656;SDS011;11495;55.610;12.100;2022-09-09T02:40:34;1.85;;;1.40;;
22656;SDS011;11495;55.610;12.100;2022-09-09T02:42:59;1.85;;;1.25;;
22656;SDS011;11495;55.610;12.100;2022-09-09T02:45:25;1.30;;;1.20;;
22656;SDS011;11495;55.610;12.100;2022-09-09T02:50:35;2.10;;;1.90;;
22656;SDS011;11495;55.610;12.100;2022-09-09T02:53:19;1.83;;;1.52;;
22656;SDS011;11495;55.610;12.100;2022-09-09T02:58:26;2.20;;;1.55;;
22656;SDS011;11495;55.610;12.100;2022-09-09T03:00:51;2.17;;;1.52;;
22656;SDS011;11495;55.610;12.100;2022-09-09T03:03:18;1.87;;;1.50;;
22656;SDS011;11495;55.610;12.100;2022-09-09T03:05:45;1.40;;;1.30;;
22656;SDS011;11495;55.610;12.100;2022-09-09T03:08:11;1.87;;;1.00;;
22656;SDS011;11495;55.610;12.100;2022-09-09T03:10:38;1.77;;;1.50;;
22656;SDS011;11495;55.610;12.100;2022-09-09T03:13:03;1.58;;;1.25;;
22656;SDS011;11495;55.610;12.100;2022-09-09T03:15:30;1.65;;;1.20;;
22656;SDS011;11495;55.610;12.100;2022-09-09T03:17:59;3.22;;;1.33;;
22656;SDS011;11495;55.610;12.100;2022-09-09T03:20:26;1.35;;;1.20;;
22656;SDS011;11495;55.610;12.100;2022-09-09T03:22:53;2.05;;;1.00;;
22656;SDS011;11495;55.610;12.100;2022-09-09T03:25:19;3.28;;;1.48;;
22656;SDS011;11495;55.610;12.100;2022-09-09T03:27:45;1.23;;;1.02;;
22656;SDS011;11495;55.610;12.100;2022-09-09T03:30:10;2.25;;;1.58;;
22656;SDS011;11495;55.610;12.100;2022-09-09T03:32:36;1.67;;;1.42;;
22656;SDS011;11495;55.610;12.100;2022-09-09T03:35:02;1.85;;;1.37;;
22656;SDS011;11495;55.610;12.100;2022-09-09T03:37:27;4.43;;;1.92;;
22656;SDS011;11495;55.610;12.100;2022-09-09T03:39:53;3.08;;;1.92;;
22656;SDS011;11495;55.610;12.100;2022-09-09T03:42:21;3.47;;;1.58;;
22656;SDS011;11495;55.610;12.100;2022-09-09T03:44:47;2.90;;;1.70;;
22656;SDS011;11495;55.610;12.100;2022-09-09T03:47:15;2.85;;;1.37;;
22656;SDS011;11495;55.610;12.100;2022-09-09T03:49:42;1.52;;;1.27;;
22656;SDS011;11495;55.610;12.100;2022-09-09T03:52:08;1.52;;;1.40;;
22656;SDS011;11495;55.610;12.100;2022-09-09T03:54:34;1.65;;;1.27;;
22656;SDS011;11495;55.610;12.100;2022-09-09T03:56:59;1.58;;;1.37;;
22656;SDS011;11495;55.610;12.100;2022-09-09T03:59:25;1.58;;;1.12;;
22656;SDS011;11495;55.610;12.100;2022-09-09T04:01:51;1.00;;;0.90;;
22656;SDS011;11495;55.610;12.100;2022-09-09T04:04:21;1.45;;;1.12;;
22656;SDS011;11495;55.610;12.100;2022-09-09T04:06:47;2.45;;;1.40;;
22656;SDS011;11495;55.610;12.100;2022-09-09T04:09:13;2.97;;;2.10;;
22656;SDS011;11495;55.610;12.100;2022-09-09T04:11:39;2.60;;;1.48;;
22656;SDS011;11495;55.610;12.100;2022-09-09T04:14:07;4.10;;;1.87;;
22656;SDS011;11495;55.610;12.100;2022-09-09T04:16:33;2.25;;;1.77;;
22656;SDS011;11495;55.610;12.100;2022-09-09T04:18:59;2.97;;;2.12;;
22656;SDS011;11495;55.610;12.100;2022-09-09T04:21:25;2.50;;;1.90;;
22656;SDS011;11495;55.610;12.100;2022-09-09T04:23:51;2.35;;;1.67;;
22656;SDS011;11495;55.610;12.100;2022-09-09T04:26:16;3.92;;;2.47;;
22656;SDS011;11495;55.610;12.100;2022-09-09T04:28:43;5.75;;;1.80;;
22656;SDS011;11495;55.610;12.100;2022-09-09T04:31:18;1.80;;;1.50;;
22656;SDS011;11495;55.610;12.100;2022-09-09T04:33:47;2.72;;;1.73;;
22656;SDS011;11495;55.610;12.100;2022-09-09T04:36:14;3.20;;;2.62;;
22656;SDS011;11495;55.610;12.100;2022-09-09T04:38:40;3.22;;;1.77;;
22656;SDS011;11495;55.610;12.100;2022-09-09T04:41:06;2.28;;;1.75;;
22656;SDS011;11495;55.610;12.100;2022-09-09T04:43:32;1.83;;;1.65;;
22656;SDS011;11495;55.610;12.100;2022-09-09T04:45:58;2.08;;;1.83;;
22656;SDS011;11495;55.610;12.100;2022-09-09T04:48:26;2.08;;;1.83;;
22656;SDS011;11495;55.610;12.100;2022-09-09T04:50:59;1.87;;;1.70;;
22656;SDS011;11495;55.610;12.100;2022-09-09T04:53:27;1.67;;;1.58;;
22656;SDS011;11495;55.610;12.100;2022-09-09T04:56:00;2.47;;;1.73;;
22656;SDS011;11495;55.610;12.100;2022-09-09T04:58:28;2.20;;;2.00;;
22656;SDS011;11495;55.610;12.100;2022-09-09T05:00:54;2.20;;;2.00;;
22656;SDS011;11495;55.610;12.100;2022-09-09T05:03:19;4.07;;;2.37;;
22656;SDS011;11495;55.610;12.100;2022-09-09T05:05:44;2.60;;;1.95;;
22656;SDS011;11495;55.610;12.100;2022-09-09T05:08:10;1.52;;;1.42;;
22656;SDS011;11495;55.610;12.100;2022-09-09T05:10:36;2.47;;;1.85;;
22656;SDS011;11495;55.610;12.100;2022-09-09T05:13:03;3.55;;;2.17;;
22656;SDS011;11495;55.610;12.100;2022-09-09T05:15:30;2.22;;;2.03;;
22656;SDS011;11495;55.610;12.100;2022-09-09T05:17:59;3.08;;;1.52;;
22656;SDS011;11495;55.610;12.100;2022-09-09T05:20:26;3.33;;;1.60;;
22656;SDS011;11495;55.610;12.100;2022-09-09T05:22:53;2.10;;;1.90;;
22656;SDS011;11495;55.610;12.100;2022-09-09T05:25:19;3.45;;;1.85;;
22656;SDS011;11495;55.610;12.100;2022-09-09T05:27:45;4.97;;;3.00;;
22656;SDS011;11495;55.610;12.100;2022-09-09T05:30:10;4.15;;;3.17;;
22656;SDS011;11495;55.610;12.100;2022-09-09T05:32:36;3.47;;;2.55;;
22656;SDS011;11495;55.610;12.100;2022-09-09T05:35:01;3.75;;;2.45;;
22656;SDS011;11495;55.610;12.100;2022-09-09T05:37:27;3.17;;;2.65;;
22656;SDS011;11495;55.610;12.100;2022-09-09T05:39:55;3.22;;;2.40;;
22656;SDS011;11495;55.610;12.100;2022-09-09T05:42:20;3.80;;;2.22;;
22656;SDS011;11495;55.610;12.100;2022-09-09T05:44:46;2.62;;;2.12;;
22656;SDS011;11495;55.610;12.100;2022-09-09T05:47:11;2.22;;;2.03;;
22656;SDS011;11495;55.610;12.100;2022-09-09T05:49:36;2.12;;;1.95;;
22656;SDS011;11495;55.610;12.100;2022-09-09T05:52:02;3.03;;;2.37;;
22656;SDS011;11495;55.610;12.100;2022-09-09T05:54:29;3.20;;;2.30;;
22656;SDS011;11495;55.610;12.100;2022-09-09T05:56:54;2.65;;;2.45;;
22656;SDS011;11495;55.610;12.100;2022-09-09T05:59:20;2.47;;;2.28;;
22656;SDS011;11495;55.610;12.100;2022-09-09T06:01:46;2.12;;;1.90;;
22656;SDS011;11495;55.610;12.100;2022-09-09T06:04:12;3.67;;;2.62;;
22656;SDS011;11495;55.610;12.100;2022-09-09T06:06:38;2.85;;;2.60;;
22656;SDS011;11495;55.610;12.100;2022-09-09T06:09:05;2.87;;;2.40;;
22656;SDS011;11495;55.610;12.100;2022-09-09T06:11:35;3.22;;;2.40;;
22656;SDS011;11495;55.610;12.100;2022-09-09T06:14:06;5.07;;;4.07;;
22656;SDS011;11495;55.610;12.100;2022-09-09T06:16:35;4.15;;;3.75;;
22656;SDS011;11495;55.610;12.100;2022-09-09T06:19:02;5.37;;;4.07;;
22656;SDS011;11495;55.610;12.100;2022-09-09T06:21:33;3.50;;;3.08;;
22656;SDS011;11495;55.610;12.100;2022-09-09T06:24:04;4.28;;;3.30;;
22656;SDS011;11495;55.610;12.100;2022-09-09T06:26:33;4.93;;;3.75;;
22656;SDS011;11495;55.610;12.100;2022-09-09T06:29:01;5.10;;;3.85;;
22656;SDS011;11495;55.610;12.100;2022-09-09T06:31:35;5.43;;;3.12;;
22656;SDS011;11495;55.610;12.100;2022-09-09T06:34:06;3.33;;;3.03;;
22656;SDS011;11495;55.610;12.100;2022-09-09T06:36:34;4.05;;;3.10;;
22656;SDS011;11495;55.610;12.100;2022-09-09T06:39:06;3.25;;;2.95;;
22656;SDS011;11495;55.610;12.100;2022-09-09T06:41:36;4.40;;;2.50;;
22656;SDS011;11495;55.610;12.100;2022-09-09T06:44:03;3.30;;;2.92;;
22656;SDS011;11495;55.610;12.100;2022-09-09T06:46:30;5.57;;;4.00;;
22656;SDS011;11495;55.610;12.100;2022-09-09T06:49:00;4.35;;;3.90;;
22656;SDS011;11495;55.610;12.100;2022-09-09T06:51:27;4.12;;;3.72;;
22656;SDS011;11495;55.610;12.100;2022-09-09T06:54:09;3.92;;;3.53;;
22656;SDS011;11495;55.610;12.100;2022-09-09T06:56:39;3.53;;;3.08;;
22656;SDS011;11495;55.610;12.100;2022-09-09T06:59:07;4.07;;;3.62;;
22656;SDS011;11495;55.610;12.100;2022-09-09T07:01:37;3.72;;;3.30;;
22656;SDS011;11495;55.610;12.100;2022-09-09T07:04:16;5.22;;;3.05;;
22656;SDS011;11495;55.610;12.100;2022-09-09T07:06:45;5.07;;;3.95;;
22656;SDS011;11495;55.610;12.100;2022-09-09T07:09:14;24.00;;;21.67;;
22656;SDS011;11495;55.610;12.100;2022-09-09T07:11:42;14.40;;;12.90;;
22656;SDS011;11495;55.610;12.100;2022-09-09T07:14:14;10.35;;;9.30;;
22656;SDS011;11495;55.610;12.100;2022-09-09T07:16:45;10.98;;;9.70;;
22656;SDS011;11495;55.610;12.100;2022-09-09T07:19:13;15.85;;;11.65;;
22656;SDS011;11495;55.610;12.100;2022-09-09T07:21:45;11.55;;;9.90;;
22656;SDS011;11495;55.610;12.100;2022-09-09T07:24:10;10.25;;;8.40;;
22656;SDS011;11495;55.610;12.100;2022-09-09T07:26:39;7.45;;;6.47;;
22656;SDS011;11495;55.610;12.100;2022-09-09T07:29:05;7.10;;;5.25;;
22656;SDS011;11495;55.610;12.100;2022-09-09T07:31:32;6.40;;;5.80;;
22656;SDS011;11495;55.610;12.100;2022-09-09T07:34:00;6.37;;;5.22;;
22656;SDS011;11495;55.610;12.100;2022-09-09T07:36:28;7.43;;;6.68;;
22656;SDS011;11495;55.610;12.100;2022-09-09T07:38:56;6.35;;;5.47;;
22656;SDS011;11495;55.610;12.100;2022-09-09T07:41:47;6.22;;;4.93;;
22656;SDS011;11495;55.610;12.100;2022-09-09T07:44:17;4.65;;;3.72;;
22656;SDS011;11495;55.610;12.100;2022-09-09T07:46:47;3.70;;;3.40;;
22656;SDS011;11495;55.610;12.100;2022-09-09T07:49:15;5.03;;;4.55;;
22656;SDS011;11495;55.610;12.100;2022-09-09T07:51:45;4.65;;;3.95;;
22656;SDS011;11495;55.610;12.100;2022-09-09T07:54:13;4.07;;;3.67;;
22656;SDS011;11495;55.610;12.100;2022-09-09T07:57:17;3.12;;;2.83;;
22656;SDS011;11495;55.610;12.100;2022-09-09T07:59:43;4.03;;;3.33;;
22656;SDS011;11495;55.610;12.100;2022-09-09T08:02:11;2.80;;;2.53;;
22656;SDS011;11495;55.610;12.100;2022-09-09T08:04:37;2.70;;;2.50;;
22656;SDS011;11495;55.610;12.100;2022-09-09T08:07:05;2.80;;;2.33;;
22656;SDS011;11495;55.610;12.100;2022-09-09T08:09:31;2.78;;;2.58;;
22656;SDS011;11495;55.610;12.100;2022-09-09T08:11:57;2.45;;;2.05;;
22656;SDS011;11495;55.610;12.100;2022-09-09T08:14:23;2.97;;;2.00;;
22656;SDS011;11495;55.610;12.100;2022-09-09T08:16:52;3.45;;;2.40;;
22656;SDS011;11495;55.610;12.100;2022-09-09T08:19:21;2.62;;;2.05;;
22656;SDS011;11495;55.610;12.100;2022-09-09T08:21:46;2.08;;;1.87;;
22656;SDS011;11495;55.610;12.100;2022-09-09T08:24:13;1.87;;;1.77;;
22656;SDS011;11495;55.610;12.100;2022-09-09T08:26:44;2.00;;;1.77;;
22656;SDS011;11495;55.610;12.100;2022-09-09T08:29:12;2.53;;;2.33;;
22656;SDS011;11495;55.610;12.100;2022-09-09T08:31:39;2.40;;;2.12;;
22656;SDS011;11495;55.610;12.100;2022-09-09T08:34:08;2.90;;;2.45;;
22656;SDS011;11495;55.610;12.100;2022-09-09T08:36:44;2.97;;;2.55;;
22656;SDS011;11495;55.610;12.100;2022-09-09T08:39:14;2.40;;;2.20;;
22656;SDS011;11495;55.610;12.100;2022-09-09T08:53:19;2.10;;;1.95;;
22656;SDS011;11495;55.610;12.100;2022-09-09T08:55:45;1.80;;;1.70;;
22656;SDS011;11495;55.610;12.100;2022-09-09T08:58:25;2.72;;;2.53;;
22656;SDS011;11495;55.610;12.100;2022-09-09T09:09:02;4.20;;;2.90;;
22656;SDS011;11495;55.610;12.100;2022-09-09T09:14:20;3.42;;;3.12;;
22656;SDS011;11495;55.610;12.100;2022-09-09T09:16:54;2.65;;;2.35;;
22656;SDS011;11495;55.610;12.100;2022-09-09T09:19:23;2.20;;;2.00;;
22656;SDS011;11495;55.610;12.100;2022-09-09T09:21:54;2.62;;;2.20;;
22656;SDS011;11495;55.610;12.100;2022-09-09T09:24:30;1.85;;;1.70;;
22656;SDS011;11495;55.610;12.100;2022-09-09T09:27:14;3.30;;;3.00;;
22656;SDS011;11495;55.610;12.100;2022-09-09T09:29:43;3.30;;;3.00;;
22656;SDS011;11495;55.610;12.100;2022-09-09T09:32:14;2.80;;;2.60;;
22656;SDS011;11495;55.610;12.100;2022-09-09T09:34:48;4.90;;;3.27;;
22656;SDS011;11495;55.610;12.100;2022-09-09T09:37:17;4.00;;;3.70;;
22656;SDS011;11495;55.610;12.100;2022-09-09T09:39:53;2.67;;;2.47;;
22656;SDS011;11495;55.610;12.100;2022-09-09T09:42:18;3.75;;;3.30;;
22656;SDS011;11495;55.610;12.100;2022-09-09T09:44:44;3.37;;;2.92;;
22656;SDS011;11495;55.610;12.100;2022-09-09T09:47:13;4.43;;;2.92;;
22656;SDS011;11495;55.610;12.100;2022-09-09T09:49:57;3.15;;;2.67;;
22656;SDS011;11495;55.610;12.100;2022-09-09T09:52:33;3.85;;;3.55;;
22656;SDS011;11495;55.610;12.100;2022-09-09T09:55:02;5.10;;;3.10;;
22656;SDS011;11495;55.610;12.100;2022-09-09T09:57:32;5.10;;;4.18;;
22656;SDS011;11495;55.610;12.100;2022-09-09T10:00:12;4.12;;;3.72;;
22656;SDS011;11495;55.610;12.100;2022-09-09T10:02:43;3.20;;;2.90;;
22656;SDS011;11495;55.610;12.100;2022-09-09T10:05:15;4.45;;;4.05;;
22656;SDS011;11495;55.610;12.100;2022-09-09T10:07:40;3.30;;;3.00;;
22656;SDS011;11495;55.610;12.100;2022-09-09T10:10:10;3.37;;;3.05;;
22656;SDS011;11495;55.610;12.100;2022-09-09T10:12:53;2.60;;;2.30;;
22656;SDS011;11495;55.610;12.100;2022-09-09T10:15:38;3.85;;;3.30;;
22656;SDS011;11495;55.610;12.100;2022-09-09T10:18:39;2.70;;;2.50;;
22656;SDS011;11495;55.610;12.100;2022-09-09T10:26:32;2.83;;;2.63;;
22656;SDS011;11495;55.610;12.100;2022-09-09T10:37:18;2.53;;;2.33;;
22656;SDS011;11495;55.610;12.100;2022-09-09T10:43:42;3.17;;;1.98;;
22656;SDS011;11495;55.610;12.100;2022-09-09T10:51:36;3.28;;;1.70;;
22656;SDS011;11495;55.610;12.100;2022-09-09T10:57:10;2.60;;;1.95;;
22656;SDS011;11495;55.610;12.100;2022-09-09T10:59:43;1.67;;;1.58;;
22656;SDS011;11495;55.610;12.100;2022-09-09T11:02:19;1.62;;;1.52;;
22656;SDS011;11495;55.610;12.100;2022-09-09T11:05:01;3.20;;;2.92;;
22656;SDS011;11495;55.610;12.100;2022-09-09T11:12:56;2.05;;;1.92;;
22656;SDS011;11495;55.610;12.100;2022-09-09T11:15:40;1.30;;;1.25;;
22656;SDS011;11495;55.610;12.100;2022-09-09T11:18:15;1.50;;;1.40;;
22656;SDS011;11495;55.610;12.100;2022-09-09T11:20:45;1.73;;;1.62;;
22656;SDS011;11495;55.610;12.100;2022-09-09T11:23:18;1.65;;;1.55;;
22656;SDS011;11495;55.610;12.100;2022-09-09T11:25:52;1.55;;;1.45;;
22656;SDS011;11495;55.610;12.100;2022-09-09T11:28:28;2.10;;;1.90;;
22656;SDS011;11495;55.610;12.100;2022-09-09T11:33:41;1.58;;;1.48;;
22656;SDS011;11495;55.610;12.100;2022-09-09T11:36:35;1.30;;;1.20;;
22656;SDS011;11495;55.610;12.100;2022-09-09T11:42:30;1.00;;;1.00;;
22656;SDS011;11495;55.610;12.100;2022-09-09T11:44:56;1.30;;;1.20;;
22656;SDS011;11495;55.610;12.100;2022-09-09T11:50:27;1.37;;;1.27;;
22656;SDS011;11495;55.610;12.100;2022-09-09T11:53:31;1.95;;;1.62;;
22656;SDS011;11495;55.610;12.100;2022-09-09T11:56:03;1.40;;;1.27;;
22656;SDS011;11495;55.610;12.100;2022-09-09T11:58:40;0.90;;;0.90;;
22656;SDS011;11495;55.610;12.100;2022-09-09T12:01:15;3.20;;;1.70;;
22656;SDS011;11495;55.610;12.100;2022-09-09T12:06:48;2.50;;;1.58;;
22656;SDS011;11495;55.610;12.100;2022-09-09T12:09:19;2.28;;;1.83;;
22656;SDS011;11495;55.610;12.100;2022-09-09T12:11:50;2.40;;;1.50;;
22656;SDS011;11495;55.610;12.100;2022-09-09T12:14:20;1.70;;;1.60;;
22656;SDS011;11495;55.610;12.100;2022-09-09T12:16:47;3.20;;;2.10;;
22656;SDS011;11495;55.610;12.100;2022-09-09T12:19:20;2.67;;;1.90;;
22656;SDS011;11495;55.610;12.100;2022-09-09T12:24:52;2.20;;;1.48;;
22656;SDS011;11495;55.610;12.100;2022-09-09T12:27:38;2.42;;;2.22;;
22656;SDS011;11495;55.610;12.100;2022-09-09T12:30:12;4.62;;;3.35;;
22656;SDS011;11495;55.610;12.100;2022-09-09T12:32:40;4.45;;;2.95;;
22656;SDS011;11495;55.610;12.100;2022-09-09T12:35:09;3.80;;;3.00;;
22656;SDS011;11495;55.610;12.100;2022-09-09T12:37:40;2.70;;;2.50;;
22656;SDS011;11495;55.610;12.100;2022-09-09T12:40:23;6.40;;;4.47;;
22656;SDS011;11495;55.610;12.100;2022-09-09T12:42:51;4.57;;;3.20;;
22656;SDS011;11495;55.610;12.100;2022-09-09T12:50:26;5.18;;;3.45;;
22656;SDS011;11495;55.610;12.100;2022-09-09T12:52:55;4.45;;;4.00;;
22656;SDS011;11495;55.610;12.100;2022-09-09T12:55:34;3.33;;;3.12;;
22656;SDS011;11495;55.610;12.100;2022-09-09T12:58:17;4.80;;;3.47;;
22656;SDS011;11495;55.610;12.100;2022-09-09T13:00:49;6.65;;;4.45;;
22656;SDS011;11495;55.610;12.100;2022-09-09T13:03:18;4.78;;;4.28;;
22656;SDS011;11495;55.610;12.100;2022-09-09T13:05:46;3.80;;;3.42;;
22656;SDS011;11495;55.610;12.100;2022-09-09T13:08:13;4.68;;;3.53;;
22656;SDS011;11495;55.610;12.100;2022-09-09T13:10:44;5.72;;;3.65;;
22656;SDS011;11495;55.610;12.100;2022-09-09T13:13:17;6.10;;;4.28;;
22656;SDS011;11495;55.610;12.100;2022-09-09T13:15:53;5.60;;;4.70;;
22656;SDS011;11495;55.610;12.100;2022-09-09T13:18:34;3.58;;;3.03;;
22656;SDS011;11495;55.610;12.100;2022-09-09T13:21:03;3.80;;;3.40;;
22656;SDS011;11495;55.610;12.100;2022-09-09T13:23:36;6.25;;;4.12;;
22656;SDS011;11495;55.610;12.100;2022-09-09T13:26:03;4.22;;;3.33;;
22656;SDS011;11495;55.610;12.100;2022-09-09T13:28:33;5.45;;;4.72;;
22656;SDS011;11495;55.610;12.100;2022-09-09T13:31:19;5.35;;;4.72;;
22656;SDS011;11495;55.610;12.100;2022-09-09T13:33:49;4.37;;;3.97;;
22656;SDS011;11495;55.610;12.100;2022-09-09T13:36:14;7.05;;;5.28;;
22656;SDS011;11495;55.610;12.100;2022-09-09T13:41:11;7.28;;;5.87;;
22656;SDS011;11495;55.610;12.100;2022-09-09T13:43:47;3.70;;;3.37;;
22656;SDS011;11495;55.610;12.100;2022-09-09T13:48:57;3.87;;;3.58;;
22656;SDS011;11495;55.610;12.100;2022-09-09T13:51:29;3.97;;;3.58;;
22656;SDS011;11495;55.610;12.100;2022-09-09T13:54:05;3.83;;;3.45;;
22656;SDS011;11495;55.610;12.100;2022-09-09T13:56:36;6.75;;;4.93;;
22656;SDS011;11495;55.610;12.100;2022-09-09T13:59:09;6.03;;;4.87;;
22656;SDS011;11495;55.610;12.100;2022-09-09T14:01:36;5.60;;;5.05;;
22656;SDS011;11495;55.610;12.100;2022-09-09T14:04:06;6.95;;;5.68;;
22656;SDS011;11495;55.610;12.100;2022-09-09T14:06:33;4.85;;;4.22;;
22656;SDS011;11495;55.610;12.100;2022-09-09T14:09:03;4.80;;;3.92;;
22656;SDS011;11495;55.610;12.100;2022-09-09T14:11:29;7.85;;;5.87;;
22656;SDS011;11495;55.610;12.100;2022-09-09T14:13:54;6.18;;;5.28;;
22656;SDS011;11495;55.610;12.100;2022-09-09T14:16:24;3.50;;;3.20;;
22656;SDS011;11495;55.610;12.100;2022-09-09T14:18:53;4.95;;;4.53;;
22656;SDS011;11495;55.610;12.100;2022-09-09T14:21:21;9.20;;;5.05;;
22656;SDS011;11495;55.610;12.100;2022-09-09T14:23:51;6.28;;;4.85;;
22656;SDS011;11495;55.610;12.100;2022-09-09T14:26:23;5.05;;;4.32;;
22656;SDS011;11495;55.610;12.100;2022-09-09T14:28:51;5.07;;;4.57;;
22656;SDS011;11495;55.610;12.100;2022-09-09T14:31:17;3.08;;;2.87;;
22656;SDS011;11495;55.610;12.100;2022-09-09T14:33:43;5.93;;;4.18;;
22656;SDS011;11495;55.610;12.100;2022-09-09T14:36:09;7.00;;;4.20;;
22656;SDS011;11495;55.610;12.100;2022-09-09T14:38:36;4.72;;;3.78;;
22656;SDS011;11495;55.610;12.100;2022-09-09T14:41:06;5.82;;;5.18;;
22656;SDS011;11495;55.610;12.100;2022-09-09T14:43:34;6.65;;;4.68;;
22656;SDS011;11495;55.610;12.100;2022-09-09T14:48:37;4.43;;;4.03;;
22656;SDS011;11495;55.610;12.100;2022-09-09T14:51:09;8.13;;;5.45;;
22656;SDS011;11495;55.610;12.100;2022-09-09T14:53:35;6.32;;;5.05;;
22656;SDS011;11495;55.610;12.100;2022-09-09T14:56:05;5.12;;;4.20;;
22656;SDS011;11495;55.610;12.100;2022-09-09T14:58:31;7.72;;;5.62;;
22656;SDS011;11495;55.610;12.100;2022-09-09T15:01:10;4.70;;;4.22;;
22656;SDS011;11495;55.610;12.100;2022-09-09T15:03:38;5.70;;;4.80;;
22656;SDS011;11495;55.610;12.100;2022-09-09T15:06:08;3.85;;;3.45;;
22656;SDS011;11495;55.610;12.100;2022-09-09T15:08:40;3.80;;;3.50;;
22656;SDS011;11495;55.610;12.100;2022-09-09T15:11:09;3.63;;;3.33;;
22656;SDS011;11495;55.610;12.100;2022-09-09T15:13:36;8.15;;;5.03;;
22656;SDS011;11495;55.610;12.100;2022-09-09T15:16:16;8.25;;;5.37;;
22656;SDS011;11495;55.610;12.100;2022-09-09T15:18:50;6.87;;;5.10;;
22656;SDS011;11495;55.610;12.100;2022-09-09T15:21:20;6.05;;;4.60;;
22656;SDS011;11495;55.610;12.100;2022-09-09T15:23:49;4.90;;;4.50;;
22656;SDS011;11495;55.610;12.100;2022-09-09T15:26:16;6.37;;;4.78;;
22656;SDS011;11495;55.610;12.100;2022-09-09T15:28:43;7.78;;;5.70;;
22656;SDS011;11495;55.610;12.100;2022-09-09T15:31:10;6.78;;;5.43;;
22656;SDS011;11495;55.610;12.100;2022-09-09T15:33:48;7.72;;;6.10;;
22656;SDS011;11495;55.610;12.100;2022-09-09T15:36:26;7.75;;;6.65;;
22656;SDS011;11495;55.610;12.100;2022-09-09T15:39:00;7.82;;;5.82;;
22656;SDS011;11495;55.610;12.100;2022-09-09T15:41:28;5.75;;;4.97;;
22656;SDS011;11495;55.610;12.100;2022-09-09T15:43:58;6.32;;;5.72;;
22656;SDS011;11495;55.610;12.100;2022-09-09T15:51:32;8.93;;;6.85;;
22656;SDS011;11495;55.610;12.100;2022-09-09T15:54:02;6.43;;;5.35;;
22656;SDS011;11495;55.610;12.100;2022-09-09T15:56:34;6.20;;;5.28;;
22656;SDS011;11495;55.610;12.100;2022-09-09T15:59:00;11.60;;;8.65;;
22656;SDS011;11495;55.610;12.100;2022-09-09T16:01:28;8.85;;;7.60;;
22656;SDS011;11495;55.610;12.100;2022-09-09T16:03:55;4.87;;;4.40;;
22656;SDS011;11495;55.610;12.100;2022-09-09T16:06:22;7.45;;;6.60;;
22656;SDS011;11495;55.610;12.100;2022-09-09T16:08:50;8.57;;;5.22;;
22656;SDS011;11495;55.610;12.100;2022-09-09T16:11:24;6.62;;;5.90;;
22656;SDS011;11495;55.610;12.100;2022-09-09T16:13:50;5.75;;;5.20;;
22656;SDS011;11495;55.610;12.100;2022-09-09T16:16:18;6.87;;;6.18;;
22656;SDS011;11495;55.610;12.100;2022-09-09T16:18:47;6.50;;;5.78;;
22656;SDS011;11495;55.610;12.100;2022-09-09T16:21:15;7.90;;;6.60;;
22656;SDS011;11495;55.610;12.100;2022-09-09T16:23:44;7.20;;;6.15;;
22656;SDS011;11495;55.610;12.100;2022-09-09T16:26:11;11.68;;;9.40;;
22656;SDS011;11495;55.610;12.100;2022-09-09T16:28:37;7.47;;;6.78;;
22656;SDS011;11495;55.610;12.100;2022-09-09T16:31:04;7.62;;;5.72;;
22656;SDS011;11495;55.610;12.100;2022-09-09T16:33:31;8.52;;;7.62;;
22656;SDS011;11495;55.610;12.100;2022-09-09T16:35:56;8.70;;;7.80;;
22656;SDS011;11495;55.610;12.100;2022-09-09T16:38:22;8.13;;;7.25;;
22656;SDS011;11495;55.610;12.100;2022-09-09T16:40:47;7.65;;;6.32;;
22656;SDS011;11495;55.610;12.100;2022-09-09T16:43:15;5.20;;;4.70;;
22656;SDS011;11495;55.610;12.100;2022-09-09T16:45:41;6.40;;;5.30;;
22656;SDS011;11495;55.610;12.100;2022-09-09T16:48:08;4.40;;;4.00;;
22656;SDS011;11495;55.610;12.100;2022-09-09T16:50:34;6.22;;;5.37;;
22656;SDS011;11495;55.610;12.100;2022-09-09T16:52:59;6.25;;;5.65;;
22656;SDS011;11495;55.610;12.100;2022-09-09T16:55:27;6.40;;;5.80;;